createdAt,value
2018-01-18T00:01:42.169Z,46.59
2018-01-18T00:04:08.800Z,46.69
2018-01-18T00:06:35.488Z,46.45
2018-01-18T00:09:02.088Z,46.42
2018-01-18T00:11:28.681Z,46.40
2018-01-18T00:13:55.336Z,46.48
2018-01-18T00:16:21.938Z,46.47
2018-01-18T00:18:48.543Z,46.34
2018-01-18T00:21:15.245Z,46.37
2018-01-18T00:23:42.596Z,46.29
2018-01-18T00:26:09.960Z,46.34
2018-01-18T00:28:37.327Z,46.23
2018-01-18T00:31:03.905Z,46.31
2018-01-18T00:33:30.573Z,46.17
2018-01-18T00:35:57.128Z,46.07
2018-01-18T00:38:23.767Z,46.11
2018-01-18T00:40:50.415Z,46.10
2018-01-18T00:43:16.981Z,46.05
2018-01-18T00:45:43.565Z,46.08
2018-01-18T00:48:10.146Z,46.00
2018-01-18T00:50:36.727Z,46.07
2018-01-18T00:53:03.292Z,46.10
2018-01-18T00:55:29.884Z,46.06
2018-01-18T00:57:57.220Z,46.04
2018-01-18T01:00:23.869Z,46.09
2018-01-18T01:02:50.483Z,46.14
2018-01-18T01:05:17.048Z,46.14
2018-01-18T01:07:43.743Z,46.13
2018-01-18T01:10:10.387Z,46.11
2018-01-18T01:12:37.056Z,46.13
2018-01-18T01:15:03.680Z,46.17
2018-01-18T01:17:30.307Z,46.24
2018-01-18T01:19:56.967Z,46.18
2018-01-18T01:22:23.660Z,46.18
2018-01-18T01:24:50.309Z,46.23
2018-01-18T01:27:16.957Z,46.16
2018-01-18T01:29:44.285Z,46.13
2018-01-18T01:32:10.900Z,46.20
2018-01-18T01:34:37.484Z,46.20
2018-01-18T01:37:04.063Z,46.14
2018-01-18T01:39:30.669Z,46.22
2018-01-18T01:41:57.236Z,46.06
2018-01-18T01:44:24.750Z,46.16
2018-01-18T01:46:51.324Z,46.13
2018-01-18T01:49:18.627Z,46.16
2018-01-18T01:51:45.188Z,46.11
2018-01-18T01:54:11.795Z,46.08
2018-01-18T01:56:38.425Z,46.08
2018-01-18T01:59:05.750Z,46.04
2018-01-18T02:01:32.346Z,46.02
2018-01-18T02:03:58.930Z,46.07
2018-01-18T02:06:25.523Z,46.07
2018-01-18T02:08:52.181Z,46.09
2018-01-18T02:11:18.784Z,46.13
2018-01-18T02:13:45.377Z,46.10
2018-01-18T02:16:11.943Z,46.15
2018-01-18T02:18:38.547Z,46.12
2018-01-18T02:21:05.158Z,46.18
2018-01-18T02:23:32.566Z,46.23
2018-01-18T02:25:59.140Z,46.19
2018-01-18T02:28:25.724Z,46.22
2018-01-18T02:30:52.296Z,46.21
2018-01-18T02:33:18.872Z,46.29
2018-01-18T02:35:45.497Z,46.29
2018-01-18T02:38:12.077Z,46.28
2018-01-18T02:40:39.402Z,46.33
2018-01-18T02:43:06.156Z,46.34
2018-01-18T02:45:32.785Z,46.31
2018-01-18T02:47:59.409Z,46.31
2018-01-18T02:50:25.997Z,46.32
2018-01-18T02:52:52.643Z,46.36
2018-01-18T02:55:19.215Z,46.35
2018-01-18T02:57:45.786Z,46.37
2018-01-18T03:00:12.644Z,46.35
2018-01-18T03:02:39.256Z,46.37
2018-01-18T03:05:05.879Z,46.33
2018-01-18T03:07:32.444Z,46.38
2018-01-18T03:09:59.161Z,46.39
2018-01-18T03:12:26.609Z,46.42
2018-01-18T03:14:53.977Z,46.43
2018-01-18T03:17:21.383Z,46.33
2018-01-18T03:19:47.955Z,46.36
2018-01-18T03:22:14.505Z,46.36
2018-01-18T03:24:41.071Z,46.34
2018-01-18T03:27:08.413Z,46.30
2018-01-18T03:29:35.020Z,46.42
2018-01-18T03:32:01.567Z,46.38
2018-01-18T03:34:28.159Z,46.43
2018-01-18T03:36:54.729Z,46.42
2018-01-18T03:39:21.288Z,46.43
2018-01-18T03:41:47.873Z,46.50
2018-01-18T03:44:16.319Z,46.50
2018-01-18T03:46:43.069Z,46.56
2018-01-18T03:49:10.324Z,46.55
2018-01-18T03:51:37.006Z,46.57
2018-01-18T03:54:04.419Z,46.65
2018-01-18T03:56:31.008Z,46.67
2018-01-18T03:58:58.368Z,46.70
2018-01-18T04:01:25.724Z,46.64
2018-01-18T04:03:52.778Z,46.67
2018-01-18T04:06:19.797Z,46.68
2018-01-18T04:08:46.122Z,46.71
2018-01-18T04:11:12.619Z,46.68
2018-01-18T04:13:39.228Z,46.76
2018-01-18T04:16:05.878Z,46.80
2018-01-18T04:18:32.528Z,46.78
2018-01-18T04:20:59.088Z,46.74
2018-01-18T04:23:26.413Z,46.83
2018-01-18T04:25:53.069Z,46.80
2018-01-18T04:28:19.736Z,46.83
2018-01-18T04:30:46.328Z,46.83
2018-01-18T04:33:12.867Z,46.81
2018-01-18T04:35:39.441Z,46.83
2018-01-18T04:38:05.986Z,46.84
2018-01-18T04:40:33.388Z,46.83
2018-01-18T04:42:59.967Z,46.79
2018-01-18T04:45:26.534Z,46.82
2018-01-18T04:47:53.900Z,46.84
2018-01-18T04:50:20.966Z,46.86
2018-01-18T04:52:47.607Z,46.85
2018-01-18T04:55:14.174Z,46.80
2018-01-18T04:57:40.826Z,46.74
2018-01-18T05:00:07.499Z,47.00
2018-01-18T05:02:34.223Z,46.56
2018-01-18T05:05:00.799Z,46.33
2018-01-18T05:07:27.376Z,46.16
2018-01-18T05:09:54.360Z,45.96
2018-01-18T05:12:21.129Z,45.80
2018-01-18T05:14:47.812Z,45.73
2018-01-18T05:17:14.373Z,45.57
2018-01-18T05:19:40.945Z,45.45
2018-01-18T05:22:07.505Z,45.30
2018-01-18T05:24:34.079Z,45.14
2018-01-18T05:27:00.656Z,45.01
2018-01-18T05:29:27.231Z,45.19
2018-01-18T05:31:53.808Z,44.98
2018-01-18T05:34:21.624Z,44.87
2018-01-18T05:36:48.304Z,44.80
2018-01-18T05:39:15.473Z,44.69
2018-01-18T05:41:41.989Z,44.60
2018-01-18T05:44:09.049Z,44.55
2018-01-18T05:46:36.076Z,44.37
2018-01-18T05:49:02.440Z,44.38
2018-01-18T05:51:29.662Z,44.15
2018-01-18T05:53:56.390Z,44.08
2018-01-18T05:56:23.148Z,43.96
2018-01-18T05:58:49.877Z,43.91
2018-01-18T06:01:16.742Z,43.82
2018-01-18T06:03:43.284Z,43.75
2018-01-18T06:06:09.916Z,43.75
2018-01-18T06:08:36.591Z,43.62
2018-01-18T06:11:03.205Z,43.53
2018-01-18T06:13:29.840Z,43.44
2018-01-18T06:15:56.484Z,43.48
2018-01-18T06:18:23.104Z,43.35
2018-01-18T06:20:49.686Z,43.25
2018-01-18T06:23:16.266Z,43.30
2018-01-18T06:25:43.444Z,43.30
2018-01-18T06:28:10.081Z,43.29
2018-01-18T06:30:36.725Z,43.82
2018-01-18T06:33:03.293Z,43.83
2018-01-18T06:35:29.841Z,43.92
2018-01-18T06:37:56.505Z,44.08
2018-01-18T06:40:23.101Z,44.17
2018-01-18T06:42:49.974Z,45.71
2018-01-18T06:45:16.829Z,47.04
2018-01-18T06:47:43.464Z,46.19
2018-01-18T06:50:10.246Z,45.99
2018-01-18T06:52:36.988Z,46.69
2018-01-18T06:55:03.926Z,46.38
2018-01-18T06:57:30.539Z,45.69
2018-01-18T06:59:57.272Z,47.10
2018-01-18T07:02:23.870Z,46.35
2018-01-18T07:04:50.476Z,47.31
2018-01-18T07:07:17.270Z,48.17
2018-01-18T07:09:44.572Z,45.54
2018-01-18T07:12:11.148Z,45.80
2018-01-18T07:14:37.692Z,45.65
2018-01-18T07:17:04.417Z,47.55
2018-01-18T07:19:30.992Z,45.75
2018-01-18T07:21:57.962Z,45.85
2018-01-18T07:24:24.747Z,45.31
2018-01-18T07:26:51.327Z,45.07
2018-01-18T07:29:18.145Z,45.18
2018-01-18T07:31:44.908Z,45.48
2018-01-18T07:34:11.667Z,45.90
2018-01-18T07:36:38.393Z,46.05
2018-01-18T07:39:05.241Z,47.90
2018-01-18T07:41:32.044Z,46.82
2018-01-18T07:43:58.842Z,46.47
2018-01-18T07:46:25.491Z,46.64
2018-01-18T07:48:52.081Z,46.95
2018-01-18T07:51:18.676Z,46.91
2018-01-18T07:53:45.326Z,47.92
2018-01-18T07:56:11.899Z,47.71
2018-01-18T07:58:39.413Z,47.85
2018-01-18T08:01:06.068Z,48.07
2018-01-18T08:03:39.396Z,48.40
2018-01-18T08:06:05.980Z,48.37
2018-01-18T08:08:32.729Z,47.93
2018-01-18T08:10:59.381Z,48.16
2018-01-18T08:13:26.127Z,48.16
2018-01-18T08:15:52.874Z,47.36
2018-01-18T08:18:19.512Z,47.50
2018-01-18T08:20:46.289Z,47.27
2018-01-18T08:23:13.731Z,47.20
2018-01-18T08:25:40.360Z,47.03
2018-01-18T08:28:07.103Z,47.53
2018-01-18T08:30:33.853Z,48.02
2018-01-18T08:33:00.477Z,48.14
2018-01-18T08:35:27.066Z,48.55
2018-01-18T08:37:53.732Z,48.58
2018-01-18T08:40:20.305Z,49.18
2018-01-18T08:42:46.891Z,49.19
2018-01-18T08:45:14.288Z,48.79
2018-01-18T08:47:40.940Z,48.34
2018-01-18T08:50:07.718Z,48.78
2018-01-18T08:52:34.468Z,48.98
2018-01-18T08:55:01.092Z,49.36
2018-01-18T08:57:27.781Z,49.28
2018-01-18T09:02:14.703Z,49.51
2018-01-18T09:04:41.361Z,49.34
2018-01-18T09:07:07.939Z,49.36
2018-01-18T09:09:34.516Z,49.14
2018-01-18T09:12:01.277Z,50.04
2018-01-18T09:14:27.873Z,49.29
2018-01-18T09:16:54.456Z,49.19
2018-01-18T09:19:21.064Z,49.04
2018-01-18T09:21:47.684Z,49.12
2018-01-18T09:24:14.262Z,49.25
2018-01-18T09:26:40.973Z,49.14
2018-01-18T09:29:07.572Z,49.32
2018-01-18T09:31:34.190Z,49.04
2018-01-18T09:34:00.800Z,49.02
2018-01-18T09:36:27.470Z,48.94
2018-01-18T09:38:54.072Z,49.09
2018-01-18T09:41:21.386Z,49.10
2018-01-18T09:43:48.002Z,48.91
2018-01-18T09:46:14.580Z,49.15
2018-01-18T09:48:41.340Z,48.87
2018-01-18T09:51:08.079Z,48.66
2018-01-18T09:53:34.844Z,48.25
2018-01-18T09:56:01.494Z,47.85
2018-01-18T09:58:28.845Z,47.80
2018-01-18T10:00:55.509Z,47.62
2018-01-18T10:03:22.913Z,47.56
2018-01-18T10:05:49.632Z,47.43
2018-01-18T10:08:16.200Z,47.46
2018-01-18T10:10:42.817Z,47.29
2018-01-18T10:13:09.605Z,47.44
2018-01-18T10:15:36.670Z,47.35
2018-01-18T10:18:03.357Z,47.49
2018-01-18T10:20:30.008Z,47.49
2018-01-18T10:22:57.006Z,47.86
2018-01-18T10:25:23.670Z,48.01
2018-01-18T10:27:50.797Z,47.71
2018-01-18T10:30:17.474Z,47.78
2018-01-18T10:32:44.931Z,47.80
2018-01-18T10:35:12.465Z,47.54
2018-01-18T10:37:39.117Z,47.71
2018-01-18T10:40:05.941Z,47.52
2018-01-18T10:42:32.646Z,47.91
2018-01-18T10:44:59.452Z,47.98
2018-01-18T10:47:26.310Z,48.15
2018-01-18T10:49:53.113Z,48.38
2018-01-18T10:52:19.899Z,48.32
2018-01-18T10:54:46.716Z,48.26
2018-01-18T10:57:13.443Z,48.43
2018-01-18T10:59:40.373Z,48.51
2018-01-18T11:02:07.420Z,48.45
2018-01-18T11:04:35.234Z,48.69
2018-01-18T11:07:01.540Z,48.16
2018-01-18T11:09:28.200Z,48.03
2018-01-18T11:11:54.874Z,47.98
2018-01-18T11:14:21.650Z,47.79
2018-01-18T11:16:48.400Z,47.98
2018-01-18T11:19:15.481Z,47.90
2018-01-18T11:21:42.116Z,48.30
2018-01-18T11:24:08.912Z,48.02
2018-01-18T11:26:35.559Z,47.81
2018-01-18T11:29:02.209Z,47.84
2018-01-18T11:31:28.955Z,48.28
2018-01-18T11:33:55.881Z,48.56
2018-01-18T11:36:22.587Z,48.72
2018-01-18T11:38:49.629Z,48.44
2018-01-18T11:41:16.677Z,48.48
2018-01-18T11:43:43.721Z,48.47
2018-01-18T11:46:10.038Z,48.45
2018-01-18T11:48:36.584Z,48.35
2018-01-18T11:51:03.329Z,48.76
2018-01-18T11:53:30.089Z,48.57
2018-01-18T11:55:57.162Z,48.62
2018-01-18T11:58:23.661Z,49.12
2018-01-18T12:00:50.272Z,48.39
2018-01-18T12:03:16.912Z,48.51
2018-01-18T12:05:43.585Z,48.30
2018-01-18T12:08:10.283Z,48.29
2018-01-18T12:10:37.017Z,48.34
2018-01-18T12:13:04.096Z,47.87
2018-01-18T12:15:30.623Z,47.13
2018-01-18T12:17:58.036Z,47.67
2018-01-18T12:20:24.981Z,47.47
2018-01-18T12:22:51.552Z,47.24
2018-01-18T12:25:18.170Z,47.30
2018-01-18T12:27:44.812Z,47.20
2018-01-18T12:30:11.497Z,47.31
2018-01-18T12:32:38.888Z,47.60
2018-01-18T12:35:05.478Z,47.43
2018-01-18T12:37:32.075Z,47.09
2018-01-18T12:39:58.720Z,46.94
2018-01-18T12:42:25.318Z,47.10
2018-01-18T12:44:52.733Z,46.95
2018-01-18T12:47:19.365Z,46.90
2018-01-18T12:49:46.015Z,46.69
2018-01-18T12:52:12.664Z,46.80
2018-01-18T12:54:39.359Z,47.12
2018-01-18T12:57:06.901Z,47.22
2018-01-18T12:59:33.505Z,47.30
2018-01-18T13:02:00.174Z,47.04
2018-01-18T13:04:26.761Z,47.19
2018-01-18T13:06:53.831Z,47.53
2018-01-18T13:09:20.641Z,47.03
2018-01-18T13:11:47.260Z,47.12
2018-01-18T13:14:13.928Z,47.68
2018-01-18T13:16:40.567Z,47.92
2018-01-18T13:19:07.173Z,48.62
2018-01-18T13:21:33.812Z,49.16
2018-01-18T13:24:00.563Z,49.48
2018-01-18T13:26:27.155Z,48.75
2018-01-18T13:28:54.275Z,48.40
2018-01-18T13:31:20.873Z,47.89
2018-01-18T13:33:47.803Z,47.63
2018-01-18T13:36:15.271Z,47.54
2018-01-18T13:38:42.661Z,47.69
2018-01-18T13:41:09.267Z,47.74
2018-01-18T13:43:36.360Z,47.70
2018-01-18T13:46:03.293Z,47.80
2018-01-18T13:48:30.092Z,47.69
2018-01-18T13:50:57.275Z,47.72
2018-01-18T13:53:24.322Z,47.55
2018-01-18T13:55:51.539Z,47.57
2018-01-18T13:58:18.261Z,47.53
2018-01-18T14:00:45.238Z,47.42
2018-01-18T14:03:12.167Z,47.20
2018-01-18T14:05:38.760Z,47.29
2018-01-18T14:08:05.353Z,47.18
2018-01-18T14:10:32.433Z,47.07
2018-01-18T14:12:59.068Z,47.07
2018-01-18T14:15:25.707Z,47.04
2018-01-18T14:17:52.285Z,47.19
2018-01-18T14:20:19.106Z,47.36
2018-01-18T14:22:45.720Z,47.32
2018-01-18T14:25:12.291Z,47.27
2018-01-18T14:27:40.474Z,46.53
2018-01-18T14:30:07.182Z,47.65
2018-01-18T14:32:33.815Z,47.64
2018-01-18T14:35:00.372Z,46.67
2018-01-18T14:37:27.151Z,46.45
2018-01-18T14:39:53.798Z,47.51
2018-01-18T14:42:20.464Z,46.21
2018-01-18T14:44:47.087Z,46.83
2018-01-18T14:47:13.935Z,47.51
2018-01-18T14:49:40.686Z,47.67
2018-01-18T14:52:07.390Z,47.77
2018-01-18T14:54:34.153Z,48.09
2018-01-18T14:57:00.908Z,47.81
2018-01-18T14:59:27.611Z,47.98
2018-01-18T15:01:54.507Z,48.00
2018-01-18T15:04:21.249Z,48.17
2018-01-18T15:06:47.867Z,48.09
2018-01-18T15:09:14.640Z,49.01
2018-01-18T15:11:41.380Z,49.66
2018-01-18T15:14:07.954Z,49.57
2018-01-18T15:16:34.546Z,49.68
2018-01-18T15:19:01.348Z,49.97
2018-01-18T15:21:28.266Z,49.63
2018-01-18T15:23:54.992Z,49.21
2018-01-18T15:26:21.665Z,48.90
2018-01-18T15:28:48.425Z,49.15
2018-01-18T15:34:16.200Z,49.93
2018-01-18T15:36:45.009Z,50.35
2018-01-18T15:39:19.918Z,51.54
2018-01-18T15:41:52.699Z,52.18
2018-01-18T15:44:19.306Z,52.45
2018-01-18T15:46:46.692Z,52.73
2018-01-18T15:49:14.108Z,52.92
2018-01-18T15:51:40.850Z,52.98
2018-01-18T15:54:07.545Z,53.19
2018-01-18T15:56:34.164Z,53.31
2018-01-18T15:59:00.864Z,53.38
2018-01-18T16:01:28.265Z,53.68
2018-01-18T16:03:55.029Z,53.67
2018-01-18T16:06:21.634Z,53.40
2018-01-18T16:08:48.362Z,52.35
2018-01-18T16:11:15.817Z,52.20
2018-01-18T16:13:43.347Z,51.85
2018-01-18T16:21:46.644Z,52.06
2018-01-18T16:24:13.365Z,51.91
2018-01-18T16:26:40.187Z,51.28
2018-01-18T16:29:07.278Z,50.83
2018-01-18T16:31:34.772Z,50.90
2018-01-18T16:34:01.425Z,50.89
2018-01-18T16:36:28.181Z,50.64
2018-01-18T16:38:54.772Z,50.43
2018-01-18T16:41:21.449Z,50.73
2018-01-18T16:46:45.470Z,50.74
2018-01-18T16:49:12.895Z,50.47
2018-01-18T16:51:39.526Z,47.39
2018-01-18T16:54:06.165Z,49.58
2018-01-18T16:56:32.864Z,49.78
2018-01-18T16:59:00.897Z,49.73
2018-01-18T17:01:27.513Z,46.95
2018-01-18T17:03:54.196Z,47.30
2018-01-18T17:06:20.925Z,47.32
2018-01-18T17:08:47.529Z,47.18
2018-01-18T17:11:14.442Z,47.89
2018-01-18T17:13:41.104Z,48.47
2018-01-18T17:16:08.513Z,48.33
2018-01-18T17:18:35.080Z,48.42
2018-01-18T17:21:01.673Z,48.61
2018-01-18T17:23:28.264Z,49.64
2018-01-18T17:25:54.904Z,49.98
2018-01-18T17:28:21.501Z,50.25
2018-01-18T17:30:48.097Z,49.98
2018-01-18T17:33:14.840Z,50.03
2018-01-18T17:35:41.605Z,50.09
2018-01-18T17:38:08.249Z,50.00
2018-01-18T17:40:34.934Z,49.83
2018-01-18T17:43:01.603Z,49.47
2018-01-18T17:45:28.247Z,49.29
2018-01-18T17:47:55.010Z,49.17
2018-01-18T17:50:21.761Z,49.10
2018-01-18T17:52:48.592Z,48.80
2018-01-18T17:55:15.503Z,48.64
2018-01-18T17:57:42.192Z,48.46
2018-01-18T18:00:09.040Z,48.61
2018-01-18T18:02:35.815Z,48.87
2018-01-18T18:05:03.354Z,49.22
2018-01-18T18:07:30.475Z,49.95
2018-01-18T18:09:57.285Z,50.61
2018-01-18T18:12:25.025Z,51.25
2018-01-18T18:14:51.712Z,51.63
2018-01-18T18:17:18.414Z,51.85
2018-01-18T18:19:45.210Z,51.99
2018-01-18T18:22:12.083Z,51.90
